NZWN/WLG METAR and TAF weather

Enter ICAO airport designator
Station Type Date Time Source
NZWN METAR 2020/04/10 20:00 UTC NOAA

NZWN 102000Z AUTO 02014KT 9999 BKN018/// 13/10 Q1014 NOSIG


Station Type Date Time Source
NZWN Decoded METAR 2020/04/10 20:00 UTC NOAA

Wellington Airport, New Zealand (NZWN) 41-20S 174-48E 8M
Apr 10, 2020 - 04:00 PM EDT / 2020.04.10 2000 UTC
Wind: from the NNE (020 degrees) at 16 MPH (14 KT):0
Visibility: greater than 7 mile(s):0
Sky conditions: mostly cloudy
Temperature: 55 F (13 C)
Dew Point: 50 F (10 C)
Relative Humidity: 81%
Pressure (altimeter): 29.94 in. Hg (1014 hPa)
ob: NZWN 102000Z AUTO 02014KT 9999 BKN018/// 13/10 Q1014 NOSIG
cycle: 20

Station Type Date Time Source
NZWN TAF 2020/04/10 18:03 UTC NOAA

TAF NZWN 101700Z 1018/1118 01010KT 9999 FEW020
BECMG 1021/1023 36015G25KT

Example: see airport list